This is the latest recevied weather packets stored in our database for station/object KB3FKJ. If no packets are shown the sender has not sent any weather packets the latest 1 day(s).
| Time | Temp. | Humidity | Pressure | Rain* | Wind** | Luminosity | Snow |
|---|---|---|---|---|---|---|---|
| 1778055014 | 16.67° C | 67% | 1006.2 hPa | 0 mm | - | 0 W/m² | - |
| 1778053500 | 17.22° C | 64% | 1006.7 hPa | 0 mm | - | 0 W/m² | - |
| 1778052895 | 17.78° C | 63% | 1006.8 hPa | 0 mm | - | 0 W/m² | - |
| 1778052592 | 17.78° C | 62% | 1006.7 hPa | 0 mm | - | 0 W/m² | - |
| 1778052289 | 17.78° C | 61% | 1006.5 hPa | 0 mm | - | 0 W/m² | - |
| 1778051987 | 17.78° C | 60% | 1006.8 hPa | 0 mm | - | 0 W/m² | - |
| 1778051381 | 17.78° C | 58% | 1006.5 hPa | 0 mm | - | 0 W/m² | - |
| 1778051078 | 17.78° C | 57% | 1006.9 hPa | 0 mm | - | 0 W/m² | - |
| 1778050473 | 17.78° C | 58% | 1006.7 hPa | 0 mm | - | 0 W/m² | - |
| 1778049866 | 18.89° C | 54% | 1006.5 hPa | 0 mm | - | 0 W/m² | - |
| 1778049260 | 18.33° C | 54% | 1006.4 hPa | 0 mm | - | 0 W/m² | - |
| 1778048958 | 18.33° C | 56% | 1006.4 hPa | 0 mm | - | 0 W/m² | - |
| 1778048656 | 18.89° C | 55% | 1006.7 hPa | 0 mm | - | 0 W/m² | - |
| 1778047141 | 18.89° C | 54% | 1006.9 hPa | 0 mm | - | 0 W/m² | - |
| 1778046838 | 19.44° C | 53% | 1007.1 hPa | 0 mm | - | 0 W/m² | - |
| 1778045626 | 18.89° C | 54% | 1007.2 hPa | 0 mm | - | 0 W/m² | - |
| 1778045324 | 18.33° C | 54% | 1007.4 hPa | 0 mm | - | 0 W/m² | - |
| 1778045023 | 18.33° C | 55% | 1007.4 hPa | 0 mm | - | 0 W/m² | - |
| 1778044720 | 18.33° C | 54% | 1007.5 hPa | 0 mm | - | 0 W/m² | - |
| 1778044416 | 18.33° C | 53% | 1007.4 hPa | 0 mm | - | 0 W/m² | - |
| 1778044113 | 18.33° C | 53% | 1007.4 hPa | 0 mm | - | 0 W/m² | - |
| 1778043811 | 18.33° C | 52% | 1007.6 hPa | 0 mm | - | 0 W/m² | - |
| 1778043508 | 18.33° C | 53% | 1007.5 hPa | 0 mm | - | 0 W/m² | - |
| 1778042901 | 18.33° C | 53% | 1007.6 hPa | 0 mm | - | 0 W/m² | - |
| 1778042599 | 18.89° C | 52% | 1007.5 hPa | 0 mm | - | 0 W/m² | - |
* Rain latest hour (hover to see other rain measurements)
** Current wind speed in m/s (hover to see current wind gust speed)